Time;durP1;ratioP1;P1;durP2;ratioP2;P2;SDS_P1;SDS_P2;PMS_P1;PMS_P2;Temp;Humidity;BMP_temperature;BMP_pressure;BME280_temperature;BME280_humidity;BME280_pressure;Samples;Min_cycle;Max_cycle;Signal;HPM_P1;HPM_P2
2023/08/05 00:02:21;;;;;;;9.33;7.20;;;15.90;99.90;;;;;;5011949;28;20203;-69
2023/08/05 00:04:47;;;;;;;7.67;6.63;;;15.90;99.90;;;;;;5011074;28;20203;-69
2023/08/05 00:07:13;;;;;;;7.77;7.03;;;15.90;99.90;;;;;;5010966;28;20186;-70
2023/08/05 00:09:38;;;;;;;7.67;6.73;;;15.80;99.90;;;;;;5011288;28;20180;-70
2023/08/05 00:12:04;;;;;;;7.33;6.63;;;15.80;99.90;;;;;;5011738;28;20179;-70
2023/08/05 00:14:30;;;;;;;9.10;7.83;;;15.80;99.90;;;;;;5012325;28;20282;-70
2023/08/05 00:16:55;;;;;;;9.13;7.67;;;15.80;99.90;;;;;;5012018;28;20164;-70
2023/08/05 00:19:21;;;;;;;8.00;7.27;;;15.80;99.90;;;;;;5008887;28;20184;-70
2023/08/05 00:21:47;;;;;;;15.93;8.17;;;15.80;99.90;;;;;;5010615;28;20200;-70
2023/08/05 00:24:12;;;;;;;12.37;7.63;;;15.80;99.90;;;;;;5011865;28;20739;-70
2023/08/05 00:26:38;;;;;;;8.13;7.40;;;15.70;99.90;;;;;;5012206;28;20180;-70
2023/08/05 00:29:03;;;;;;;8.60;7.53;;;15.80;99.90;;;;;;5011901;28;20287;-70
2023/08/05 00:31:29;;;;;;;8.10;7.30;;;15.90;99.90;;;;;;5010583;28;20191;-70
2023/08/05 00:33:54;;;;;;;9.50;7.53;;;15.90;99.90;;;;;;5010419;28;20258;-70
2023/08/05 00:36:20;;;;;;;9.03;7.77;;;15.90;99.90;;;;;;4995496;28;20180;-70
2023/08/05 00:38:46;;;;;;;9.50;7.30;;;15.90;99.90;;;;;;5008236;28;20184;-70
2023/08/05 00:41:11;;;;;;;9.90;7.03;;;15.90;99.90;;;;;;5010111;28;20180;-69
2023/08/05 00:43:37;;;;;;;9.57;7.67;;;15.90;99.90;;;;;;5011633;28;20226;-70
2023/08/05 00:46:02;;;;;;;8.40;7.60;;;15.90;99.90;;;;;;5002253;28;20925;-70
2023/08/05 00:48:28;;;;;;;9.67;7.90;;;15.90;99.90;;;;;;4992203;28;20259;-70
2023/08/05 00:50:55;;;;;;;8.27;7.37;;;15.90;99.90;;;;;;4992146;28;20173;-70
2023/08/05 00:53:23;;;;;;;13.07;7.33;;;15.90;99.90;;;;;;4991658;28;20205;-69
2023/08/05 00:55:51;;;;;;;13.63;8.57;;;15.90;99.90;;;;;;4992000;28;20557;-70
2023/08/05 00:58:17;;;;;;;8.43;7.63;;;15.90;99.90;;;;;;5023707;28;20204;-70
2023/08/05 01:00:42;;;;;;;8.20;7.43;;;15.90;99.90;;;;;;5004840;28;20211;-70
2023/08/05 01:03:08;;;;;;;9.67;7.00;;;15.80;99.90;;;;;;5009932;28;20234;-70
2023/08/05 01:05:35;;;;;;;12.27;7.97;;;15.80;99.90;;;;;;5010427;28;20581;-70
2023/08/05 01:08:02;;;;;;;9.60;7.40;;;15.70;99.90;;;;;;5009758;28;20184;-71
2023/08/05 01:10:28;;;;;;;7.80;7.00;;;15.60;99.90;;;;;;5016718;28;20184;-70
2023/08/05 01:12:54;;;;;;;8.77;7.87;;;15.50;99.90;;;;;;4991512;28;20204;-69
2023/08/05 01:15:19;;;;;;;9.23;6.77;;;15.40;99.90;;;;;;4992125;28;20678;-69
2023/08/05 01:17:45;;;;;;;9.40;7.30;;;15.30;99.90;;;;;;4992026;28;20537;-70
2023/08/05 01:20:13;;;;;;;11.10;7.13;;;15.20;99.90;;;;;;4990630;28;20661;-70
2023/08/05 01:22:43;;;;;;;19.47;6.93;;;15.20;99.90;;;;;;4991658;28;20173;-70
2023/08/05 01:25:29;;;;;;;8.30;7.50;;;15.10;99.90;;;;;;4999847;28;20209;-70
2023/08/05 01:27:57;;;;;;;9.00;7.27;;;15.10;99.90;;;;;;5023049;28;20188;-70
2023/08/05 01:30:24;;;;;;;11.10;7.53;;;15.00;99.90;;;;;;4990600;28;20189;-70
2023/08/05 01:32:51;;;;;;;8.13;7.20;;;15.00;99.90;;;;;;4991684;28;20211;-69
2023/08/05 01:35:19;;;;;;;7.97;7.13;;;14.90;99.90;;;;;;4991721;28;20677;-69
2023/08/05 01:37:46;;;;;;;9.87;7.43;;;14.90;99.90;;;;;;4991599;28;20544;-70
2023/08/05 01:40:12;;;;;;;8.67;7.77;;;14.90;99.90;;;;;;4991772;28;20169;-69
2023/08/05 01:42:38;;;;;;;10.30;7.50;;;14.90;99.90;;;;;;4991508;28;20184;-70
2023/08/05 01:45:04;;;;;;;16.97;8.33;;;14.90;99.90;;;;;;4990142;28;20208;-69
2023/08/05 01:47:30;;;;;;;7.93;7.27;;;14.90;99.90;;;;;;4991596;28;20169;-69
2023/08/05 01:49:55;;;;;;;13.13;8.80;;;14.90;99.90;;;;;;4991605;28;20247;-69
2023/08/05 01:52:21;;;;;;;8.50;7.60;;;14.90;99.90;;;;;;5002959;28;20200;-70
2023/08/05 01:54:47;;;;;;;11.30;8.17;;;14.90;99.90;;;;;;5014802;28;20246;-70
2023/08/05 01:57:12;;;;;;;9.17;8.07;;;15.00;99.90;;;;;;5013264;28;20227;-70
2023/08/05 01:59:38;;;;;;;12.57;7.90;;;15.00;99.90;;;;;;5014688;28;20176;-70
2023/08/05 02:02:04;;;;;;;10.30;8.53;;;15.10;99.90;;;;;;5012997;28;20220;-69
2023/08/05 02:04:29;;;;;;;12.97;8.20;;;15.10;99.90;;;;;;5014543;28;20224;-69
2023/08/05 02:06:55;;;;;;;11.07;7.20;;;15.10;99.90;;;;;;5014511;28;20187;-69
2023/08/05 02:09:20;;;;;;;10.23;8.00;;;15.10;99.90;;;;;;5013215;28;20184;-70
2023/08/05 02:11:46;;;;;;;12.20;8.33;;;15.00;99.90;;;;;;5014208;28;20219;-69
2023/08/05 02:14:11;;;;;;;11.13;8.40;;;15.00;99.90;;;;;;5012751;28;20222;-70
2023/08/05 02:16:37;;;;;;;14.50;8.37;;;15.00;99.90;;;;;;5012720;28;20589;-71
2023/08/05 02:19:03;;;;;;;12.23;7.63;;;14.90;99.90;;;;;;5008375;28;20235;-69
2023/08/05 02:21:29;;;;;;;10.53;7.53;;;14.90;99.90;;;;;;4993551;28;20517;-70
2023/08/05 02:23:55;;;;;;;12.30;8.80;;;14.80;99.90;;;;;;4992019;28;20192;-69
2023/08/05 02:26:21;;;;;;;9.83;7.83;;;14.80;99.90;;;;;;4992541;28;20189;-69
2023/08/05 02:28:46;;;;;;;9.83;8.40;;;14.80;99.90;;;;;;4993810;28;20188;-69
2023/08/05 02:31:13;;;;;;;9.53;8.53;;;14.70;99.90;;;;;;4993902;28;20181;-70
2023/08/05 02:33:39;;;;;;;10.30;9.07;;;14.70;99.90;;;;;;5003835;28;20215;-69
2023/08/05 02:36:04;;;;;;;9.77;8.27;;;14.70;99.90;;;;;;5013827;28;20184;-70
2023/08/05 02:38:30;;;;;;;11.57;9.37;;;14.60;99.90;;;;;;5014075;28;20271;-69
2023/08/05 02:40:58;;;;;;;12.27;9.43;;;14.60;99.90;;;;;;5013307;28;20654;-69
2023/08/05 02:43:24;;;;;;;12.80;9.40;;;14.60;99.90;;;;;;5011990;28;20256;-70
2023/08/05 02:45:56;;;;;;;12.50;9.53;;;14.50;99.90;;;;;;5012539;28;20298;-69
2023/08/05 02:48:23;;;;;;;11.77;9.10;;;14.50;99.90;;;;;;5013894;28;20206;-69
2023/08/05 02:50:50;;;;;;;12.17;9.73;;;14.50;99.90;;;;;;4996891;28;20184;-69
2023/08/05 02:53:16;;;;;;;10.07;9.07;;;14.50;99.90;;;;;;4993465;28;20291;-69
2023/08/05 02:55:42;;;;;;;12.20;9.00;;;14.50;99.90;;;;;;4994189;28;20200;-69
2023/08/05 02:58:08;;;;;;;10.27;9.10;;;14.40;99.90;;;;;;4994260;28;20192;-69
2023/08/05 03:00:33;;;;;;;10.83;9.53;;;14.40;99.90;;;;;;4994113;28;20172;-69
2023/08/05 03:02:59;;;;;;;16.13;9.50;;;14.30;99.90;;;;;;4992057;28;20661;-70
2023/08/05 03:05:25;;;;;;;14.83;9.40;;;14.30;99.90;;;;;;4993654;28;20653;-69
2023/08/05 03:07:50;;;;;;;11.97;9.50;;;14.20;99.90;;;;;;4992671;28;20264;-70
2023/08/05 03:10:16;;;;;;;13.70;9.90;;;14.20;99.90;;;;;;4994173;28;20304;-69
2023/08/05 03:12:42;;;;;;;12.13;9.00;;;14.20;99.90;;;;;;4993358;28;20201;-69
2023/08/05 03:15:08;;;;;;;12.30;9.47;;;14.20;99.90;;;;;;4993323;28;20232;-69
2023/08/05 03:17:35;;;;;;;10.60;9.17;;;14.20;99.90;;;;;;4993781;28;20181;-69
2023/08/05 03:20:07;;;;;;;11.63;9.13;;;14.20;99.90;;;;;;4993400;28;20196;-69
2023/08/05 03:22:32;;;;;;;13.10;10.17;;;14.10;99.90;;;;;;5001023;28;20259;-69
2023/08/05 03:27:26;;;;;;;12.57;9.17;;;14.10;99.90;;;;;;5031335;28;20264;-70
2023/08/05 03:29:51;;;;;;;16.93;9.63;;;14.00;99.90;;;;;;5032689;28;20176;-69
2023/08/05 03:32:17;;;;;;;12.63;9.10;;;14.00;99.90;;;;;;5030603;28;20674;-68
2023/08/05 03:34:43;;;;;;;12.13;9.27;;;14.00;99.90;;;;;;5031180;28;20187;-70
2023/08/05 03:37:08;;;;;;;11.70;9.40;;;14.00;99.90;;;;;;5032348;28;20536;-70
2023/08/05 03:39:34;;;;;;;12.63;9.50;;;14.00;99.90;;;;;;5032113;28;20182;-70
2023/08/05 03:41:59;;;;;;;10.63;9.17;;;14.00;99.90;;;;;;5032142;28;20171;-69
2023/08/05 03:44:25;;;;;;;12.93;8.97;;;14.00;99.90;;;;;;5032107;28;20233;-69
2023/08/05 03:46:51;;;;;;;13.90;10.07;;;13.90;99.90;;;;;;5032285;28;20175;-70
2023/08/05 03:49:17;;;;;;;12.07;9.77;;;13.90;99.90;;;;;;5031898;28;20198;-69
2023/08/05 03:51:42;;;;;;;13.17;8.63;;;13.90;99.90;;;;;;5032421;28;20172;-71
2023/08/05 03:54:08;;;;;;;11.60;8.77;;;14.00;99.90;;;;;;5031817;28;20654;-70
2023/08/05 03:56:33;;;;;;;11.40;8.97;;;13.90;99.90;;;;;;5032013;28;20187;-70
2023/08/05 03:58:59;;;;;;;14.87;9.67;;;13.90;99.90;;;;;;5032058;28;20570;-70
2023/08/05 04:01:26;;;;;;;12.23;9.70;;;13.90;99.90;;;;;;5031624;28;20164;-70
2023/08/05 04:03:51;;;;;;;10.03;8.70;;;13.90;99.90;;;;;;5031659;28;20167;-70
2023/08/05 04:06:20;;;;;;;11.57;9.37;;;13.90;99.90;;;;;;5031960;28;20641;-70
2023/08/05 04:08:48;;;;;;;13.00;9.63;;;13.90;99.90;;;;;;5031887;28;20175;-70
2023/08/05 04:11:14;;;;;;;14.60;10.07;;;13.90;99.90;;;;;;5030866;28;20218;-70
2023/08/05 04:13:40;;;;;;;12.60;9.57;;;13.90;99.90;;;;;;5031232;28;20217;-70
2023/08/05 04:16:06;;;;;;;10.60;9.50;;;13.90;99.90;;;;;;5030953;28;20274;-70
2023/08/05 04:18:36;;;;;;;15.77;10.43;;;14.00;99.90;;;;;;5030329;28;20546;-70
2023/08/05 04:21:05;;;;;;;14.93;9.73;;;14.00;99.90;;;;;;5031543;28;20176;-70
2023/08/05 04:23:34;;;;;;;11.10;8.97;;;14.00;99.90;;;;;;5031441;28;20652;-69
2023/08/05 04:26:02;;;;;;;10.57;9.50;;;14.00;99.90;;;;;;5031456;28;20222;-70
2023/08/05 04:28:28;;;;;;;12.67;10.00;;;14.10;99.90;;;;;;5031487;28;20528;-69
2023/08/05 04:30:54;;;;;;;15.77;10.27;;;14.10;99.90;;;;;;5031799;28;20183;-70
2023/08/05 04:33:19;;;;;;;13.17;10.07;;;14.10;99.90;;;;;;5031140;28;20202;-69
2023/08/05 04:35:47;;;;;;;17.63;10.27;;;14.20;99.90;;;;;;5031163;28;20582;-70
2023/08/05 04:38:13;;;;;;;18.93;11.20;;;14.20;99.90;;;;;;5031429;28;20176;-71
2023/08/05 04:40:38;;;;;;;10.70;9.60;;;14.30;99.90;;;;;;5030213;28;20735;-70
2023/08/05 04:43:04;;;;;;;13.13;10.63;;;14.30;99.90;;;;;;5030439;28;20553;-70
2023/08/05 04:45:30;;;;;;;14.30;10.30;;;14.40;99.90;;;;;;5031442;28;20282;-71
2023/08/05 04:47:55;;;;;;;13.77;9.83;;;14.40;99.90;;;;;;5031372;28;20301;-71
2023/08/05 04:50:22;;;;;;;20.10;11.00;;;14.50;99.90;;;;;;5031389;28;20647;-70
2023/08/05 04:52:48;;;;;;;14.33;10.17;;;14.60;99.90;;;;;;5030692;28;20277;-69
2023/08/05 04:55:15;;;;;;;12.00;10.60;;;14.60;99.90;;;;;;5031145;28;20215;-70
2023/08/05 04:57:42;;;;;;;17.53;11.07;;;14.70;99.90;;;;;;5031293;28;20172;-70
2023/08/05 05:00:08;;;;;;;14.83;11.23;;;14.80;99.90;;;;;;5031237;28;20164;-71
2023/08/05 05:02:34;;;;;;;17.07;10.40;;;15.00;99.90;;;;;;5030996;28;20184;-69
2023/08/05 05:05:00;;;;;;;15.07;9.93;;;15.10;99.90;;;;;;5030847;28;20298;-71
2023/08/05 05:07:26;;;;;;;13.80;9.30;;;15.20;99.90;;;;;;5031329;28;20175;-70
2023/08/05 05:09:51;;;;;;;13.87;10.83;;;15.30;99.90;;;;;;5031147;28;20190;-70
2023/08/05 05:12:17;;;;;;;13.67;10.37;;;15.30;99.90;;;;;;5030705;28;20218;-70
2023/08/05 05:14:46;;;;;;;14.83;10.57;;;15.30;99.90;;;;;;5031082;28;20188;-71
2023/08/05 05:17:16;;;;;;;10.80;8.60;;;15.30;99.90;;;;;;5030972;28;20171;-71
2023/08/05 05:19:42;;;;;;;16.17;9.90;;;15.40;99.90;;;;;;5030797;28;20175;-71
2023/08/05 05:22:08;;;;;;;11.40;10.20;;;15.40;99.90;;;;;;5030809;28;20262;-70
2023/08/05 05:24:34;;;;;;;11.40;10.30;;;15.50;99.90;;;;;;5031294;28;20230;-70
2023/08/05 05:27:00;;;;;;;14.80;10.13;;;15.50;99.90;;;;;;5030812;28;20230;-71
2023/08/05 05:29:28;;;;;;;14.10;9.63;;;15.40;99.90;;;;;;5034897;28;20684;-69
2023/08/05 05:31:54;;;;;;;11.43;9.90;;;15.40;99.90;;;;;;5034661;28;20183;-69
2023/08/05 05:34:19;;;;;;;12.73;9.13;;;15.40;99.90;;;;;;5034286;28;20203;-70
2023/08/05 05:36:45;;;;;;;10.87;8.70;;;15.40;99.90;;;;;;5034904;28;20302;-71
2023/08/05 05:39:10;;;;;;;9.70;8.70;;;15.50;99.90;;;;;;5034308;28;20183;-70
2023/08/05 05:41:36;;;;;;;13.00;8.13;;;15.50;99.90;;;;;;5034841;28;20179;-71
2023/08/05 05:44:04;;;;;;;11.43;8.43;;;15.50;99.90;;;;;;5034378;28;20186;-70
2023/08/05 05:46:33;;;;;;;9.77;8.07;;;15.50;99.90;;;;;;5034295;28;20265;-71
2023/08/05 05:48:59;;;;;;;12.30;8.57;;;15.70;99.90;;;;;;5034456;28;20212;-70
2023/08/05 05:51:25;;;;;;;12.73;8.30;;;15.90;99.90;;;;;;5034021;28;20540;-70
2023/08/05 05:53:55;;;;;;;10.03;8.10;;;16.20;99.90;;;;;;5034228;28;20211;-71
2023/08/05 05:56:21;;;;;;;8.47;7.03;;;16.40;99.90;;;;;;5034327;28;20191;-71
2023/08/05 05:58:46;;;;;;;8.20;7.30;;;16.50;99.90;;;;;;5034405;28;20251;-71
2023/08/05 06:01:13;;;;;;;8.47;7.13;;;16.60;99.90;;;;;;5033706;28;20188;-71
2023/08/05 06:03:39;;;;;;;13.07;8.47;;;16.80;99.90;;;;;;5034246;28;20203;-71
2023/08/05 06:06:05;;;;;;;11.33;7.10;;;17.00;99.90;;;;;;5032620;28;20680;-71
2023/08/05 06:08:30;;;;;;;7.97;6.67;;;17.20;99.90;;;;;;5034256;28;20188;-71
2023/08/05 06:11:01;;;;;;;8.27;6.40;;;17.40;99.90;;;;;;5034259;28;20202;-71
2023/08/05 06:13:26;;;;;;;9.83;7.13;;;17.50;99.90;;;;;;5033068;28;20215;-70
2023/08/05 06:15:55;;;;;;;15.33;6.37;;;17.50;99.90;;;;;;5033969;28;20679;-70
2023/08/05 06:18:20;;;;;;;6.77;6.10;;;17.60;99.90;;;;;;5034118;28;20164;-71
2023/08/05 06:20:49;;;;;;;7.63;6.50;;;17.50;99.90;;;;;;5034003;28;20185;-70
2023/08/05 06:23:15;;;;;;;8.63;6.23;;;17.50;99.90;;;;;;5033378;28;20637;-71
2023/08/05 06:25:42;;;;;;;18.10;8.00;;;17.60;99.90;;;;;;5031631;28;20231;-71
2023/08/05 06:28:08;;;;;;;10.40;6.87;;;17.90;99.90;;;;;;5033531;28;20529;-71
2023/08/05 06:30:34;;;;;;;7.10;6.00;;;18.10;99.90;;;;;;5033649;28;20246;-70
2023/08/05 06:33:00;;;;;;;6.83;6.10;;;18.30;99.90;;;;;;5032955;28;20668;-70
2023/08/05 06:35:26;;;;;;;7.00;6.27;;;18.50;99.90;;;;;;5033457;28;20195;-70
2023/08/05 06:37:52;;;;;;;7.37;6.07;;;18.90;99.90;;;;;;5033287;28;20195;-70
2023/08/05 06:40:17;;;;;;;6.23;5.63;;;19.20;99.90;;;;;;5033265;28;20595;-70
2023/08/05 06:42:44;;;;;;;7.07;6.23;;;19.50;99.90;;;;;;5032969;28;20225;-70
2023/08/05 06:45:09;;;;;;;8.37;5.70;;;19.60;99.90;;;;;;5032878;28;20199;-70
2023/08/05 06:47:35;;;;;;;10.33;5.57;;;19.70;99.90;;;;;;5033467;28;20242;-70
2023/08/05 06:50:05;;;;;;;9.57;5.97;;;19.70;99.90;;;;;;5033277;28;20179;-71
2023/08/05 06:52:31;;;;;;;7.00;5.77;;;19.70;99.90;;;;;;5033005;28;20668;-71
2023/08/05 06:55:00;;;;;;;8.87;6.70;;;19.90;99.90;;;;;;5031731;28;20263;-71
2023/08/05 06:57:26;;;;;;;6.23;5.63;;;19.80;99.90;;;;;;5031068;28;20544;-71
2023/08/05 06:59:52;;;;;;;11.07;6.00;;;19.80;99.90;;;;;;5031973;28;20175;-71
2023/08/05 07:02:17;;;;;;;7.90;5.87;;;19.80;99.90;;;;;;5032722;28;20508;-71
2023/08/05 07:04:43;;;;;;;6.70;6.07;;;19.80;99.90;;;;;;5032965;28;20187;-71
2023/08/05 07:07:08;;;;;;;10.20;6.20;;;20.00;99.90;;;;;;5032753;28;20569;-71
2023/08/05 07:09:34;;;;;;;11.93;5.13;;;20.50;99.90;;;;;;5031734;28;20179;-71
2023/08/05 07:12:00;;;;;;;5.68;5.18;;;21.30;99.90;;;;;;5032015;28;20199;-72
2023/08/05 07:14:25;;;;;;;5.72;5.20;;;22.10;99.90;;;;;;5032703;28;20210;-72
2023/08/05 07:16:51;;;;;;;6.72;6.05;;;22.50;99.90;;;;;;5032496;28;20178;-72
2023/08/05 07:19:17;;;;;;;7.63;5.53;;;22.60;99.90;;;;;;5031363;28;20261;-71
2023/08/05 07:21:42;;;;;;;6.20;5.60;;;22.90;99.90;;;;;;5032550;28;20171;-72
2023/08/05 07:24:08;;;;;;;8.63;5.18;;;23.30;99.90;;;;;;5032177;28;20182;-73
2023/08/05 07:26:34;;;;;;;6.55;5.85;;;23.70;99.90;;;;;;5032119;28;20280;-72
2023/08/05 07:28:59;;;;;;;6.53;5.78;;;23.80;99.90;;;;;;5032664;28;20175;-72
2023/08/05 07:31:25;;;;;;;10.25;5.78;;;23.70;99.90;;;;;;5032258;28;20533;-72
2023/08/05 07:33:51;;;;;;;6.82;5.68;;;23.90;99.90;;;;;;5032207;28;20265;-72
2023/08/05 07:36:17;;;;;;;8.57;5.70;;;23.90;99.90;;;;;;5031976;28;20668;-73
2023/08/05 07:38:45;;;;;;;6.28;5.72;;;24.00;99.90;;;;;;5031460;28;20585;-72
2023/08/05 07:41:15;;;;;;;9.63;7.65;;;24.30;99.90;;;;;;5031357;28;20179;-72
2023/08/05 07:43:42;;;;;;;7.10;5.93;;;24.50;99.90;;;;;;5032603;28;20175;-73
2023/08/05 07:46:11;;;;;;;8.65;7.80;;;24.90;99.90;;;;;;5032284;28;20240;-72
2023/08/05 07:48:39;;;;;;;8.63;7.93;;;25.50;99.90;;;;;;5032666;28;20657;-72
2023/08/05 07:51:08;;;;;;;22.10;6.68;;;26.00;99.90;;;;;;5031341;28;20176;-72
2023/08/05 07:53:37;;;;;;;6.50;5.90;;;26.50;99.90;;;;;;5031281;28;20203;-72
2023/08/05 07:56:12;;;;;;;11.70;10.63;;;26.90;99.90;;;;;;5031483;28;20187;-73
2023/08/05 07:58:45;;;;;;;7.85;6.63;;;27.30;99.90;;;;;;5032301;28;20289;-72
2023/08/05 08:01:13;;;;;;;7.15;6.22;;;27.40;99.90;;;;;;5031920;28;20167;-72
2023/08/05 08:03:41;;;;;;;7.47;6.88;;;27.10;99.90;;;;;;5031594;28;20250;-72
2023/08/05 08:06:06;;;;;;;11.60;10.60;;;26.90;99.90;;;;;;5030622;28;20246;-72
2023/08/05 08:08:32;;;;;;;12.70;11.80;;;26.50;99.90;;;;;;5031439;28;20695;-72
2023/08/05 08:10:57;;;;;;;6.65;5.97;;;26.10;99.90;;;;;;5031904;28;20179;-71
2023/08/05 08:13:23;;;;;;;12.27;11.13;;;26.00;99.90;;;;;;5031372;28;20214;-71
2023/08/05 08:15:48;;;;;;;5.57;4.95;;;25.60;99.90;;;;;;5031688;28;20337;-72
2023/08/05 08:18:14;;;;;;;9.93;4.38;;;25.40;99.90;;;;;;5031776;28;20182;-73
2023/08/05 08:20:40;;;;;;;8.18;7.45;;;25.50;99.90;;;;;;5031849;28;20175;-75
2023/08/05 08:23:05;;;;;;;8.65;7.80;;;25.60;99.90;;;;;;5030880;28;20677;-74
2023/08/05 08:25:31;;;;;;;10.60;9.80;;;25.60;99.90;;;;;;5030979;28;20203;-72
2023/08/05 08:27:56;;;;;;;4.93;4.53;;;25.90;99.90;;;;;;5031161;28;20171;-73
2023/08/05 08:30:22;;;;;;;6.75;4.60;;;26.40;99.90;;;;;;5030340;28;20258;-72
2023/08/05 08:32:47;;;;;;;5.40;4.82;;;26.80;99.90;;;;;;5031317;28;20200;-72
2023/08/05 08:35:13;;;;;;;7.55;6.93;;;27.00;99.90;;;;;;5025277;28;20202;-71
2023/08/05 08:37:39;;;;;;;5.95;5.53;;;27.10;99.90;;;;;;5030818;28;20179;-72
2023/08/05 08:40:05;;;;;;;6.20;5.60;;;26.80;99.90;;;;;;5031535;28;20171;-72
2023/08/05 08:42:31;;;;;;;5.90;4.72;;;26.60;99.90;;;;;;5031266;28;20244;-73
2023/08/05 08:45:00;;;;;;;6.90;6.50;;;26.50;99.90;;;;;;5031272;28;20282;-74
2023/08/05 08:47:27;;;;;;;10.65;10.05;;;26.60;99.90;;;;;;5029679;28;20584;-72
2023/08/05 08:49:54;;;;;;;5.53;5.03;;;26.60;99.90;;;;;;5031602;28;20549;-72
2023/08/05 08:52:20;;;;;;;6.35;4.03;;;26.80;99.90;;;;;;5031610;28;20164;-72
2023/08/05 08:54:49;;;;;;;4.20;3.90;;;27.10;99.90;;;;;;5031826;28;20196;-74
2023/08/05 08:57:15;;;;;;;4.35;3.90;;;27.40;99.90;;;;;;5032792;28;20175;-73
2023/08/05 08:59:41;;;;;;;5.03;4.10;;;27.30;99.90;;;;;;5032698;28;20168;-73
2023/08/05 09:02:12;;;;;;;7.18;3.90;;;27.20;99.90;;;;;;5036548;28;20175;-73
2023/08/05 09:04:44;;;;;;;6.47;6.07;;;27.00;99.90;;;;;;5036635;28;20184;-76
2023/08/05 09:07:10;;;;;;;7.85;7.43;;;27.00;99.90;;;;;;5035422;28;20266;-73
2023/08/05 09:09:36;;;;;;;7.03;6.53;;;27.30;99.90;;;;;;5034635;28;20532;-71
2023/08/05 09:12:02;;;;;;;4.78;4.55;;;27.50;99.90;;;;;;5032987;28;20171;-72
2023/08/05 09:14:28;;;;;;;4.05;3.85;;;27.80;99.90;;;;;;5034991;28;20195;-75
2023/08/05 09:17:01;;;;;;;3.92;3.72;;;28.30;99.90;;;;;;5034683;28;20225;-73
2023/08/05 09:19:29;;;;;;;5.72;5.22;;;28.60;99.90;;;;;;5034163;28;20176;-74
2023/08/05 09:21:55;;;;;;;6.13;5.72;;;28.50;99.90;;;;;;5033310;28;20611;-73
2023/08/05 09:24:23;;;;;;;4.85;4.40;;;28.60;99.90;;;;;;5034037;28;20198;-75
2023/08/05 09:26:57;;;;;;;4.43;3.38;;;28.80;99.90;;;;;;5037622;22;20250;-74
2023/08/05 09:29:24;;;;;;;8.45;8.05;;;29.30;99.90;;;;;;5015297;28;20178;-73
2023/08/05 09:32:00;;;;;;;7.30;6.90;;;29.60;99.90;;;;;;5029724;28;20271;-73
2023/08/05 09:34:39;;;;;;;5.85;5.55;;;29.50;99.90;;;;;;5029808;28;20211;-70
2023/08/05 09:37:08;;;;;;;8.80;8.40;;;29.10;99.90;;;;;;5014554;28;20183;-71
2023/08/05 09:39:48;;;;;;;3.90;3.70;;;28.60;99.90;;;;;;5014628;28;20582;-70
2023/08/05 09:42:24;;;;;;;3.65;3.45;;;28.10;99.90;;;;;;5014021;28;20214;-69
2023/08/05 09:44:57;;;;;;;4.75;4.45;;;27.70;99.90;;;;;;5012780;28;20645;-69
2023/08/05 09:47:27;;;;;;;5.15;4.85;;;27.30;99.90;;;;;;5014472;28;20192;-72
2023/08/05 09:49:54;;;;;;;6.70;6.38;;;27.00;99.90;;;;;;5013759;28;20176;-70
2023/08/05 09:52:22;;;;;;;3.53;3.30;;;26.90;99.90;;;;;;5014284;28;20160;-72
2023/08/05 09:54:56;;;;;;;3.85;2.97;;;26.70;99.90;;;;;;5014407;28;20264;-72
2023/08/05 09:57:22;;;;;;;3.22;3.03;;;26.30;99.90;;;;;;5013842;28;20253;-71
2023/08/05 09:59:48;;;;;;;3.60;3.40;;;26.50;99.90;;;;;;5014333;28;20168;-72
2023/08/05 10:02:20;;;;;;;3.88;3.58;;;26.90;99.90;;;;;;5014111;28;20176;-72
2023/08/05 10:04:46;;;;;;;9.82;9.43;;;27.20;99.90;;;;;;5012969;28;20574;-72
2023/08/05 10:07:14;;;;;;;3.83;3.63;;;27.10;99.90;;;;;;5013047;28;20207;-73
2023/08/05 10:09:40;;;;;;;3.22;3.03;;;26.80;99.90;;;;;;5014473;28;20709;-72
2023/08/05 10:12:08;;;;;;;3.22;2.90;;;26.60;99.90;;;;;;5013280;28;20187;-73
2023/08/05 10:14:34;;;;;;;3.20;3.00;;;26.70;99.90;;;;;;5012917;28;20203;-73
2023/08/05 10:17:01;;;;;;;3.45;3.17;;;26.70;99.90;;;;;;5013089;28;20231;-72
2023/08/05 10:19:28;;;;;;;5.72;3.67;;;26.50;99.90;;;;;;5012021;28;20180;-72
2023/08/05 10:22:09;;;;;;;3.05;2.85;;;26.20;99.90;;;;;;5014237;28;20176;-72
2023/08/05 10:24:57;;;;;;;3.33;3.10;;;26.30;99.90;;;;;;5012474;28;20180;-72
2023/08/05 10:27:43;;;;;;;3.42;3.22;;;26.60;99.90;;;;;;5013686;28;20215;-72
2023/08/05 10:30:14;;;;;;;5.97;5.68;;;27.00;99.90;;;;;;5014024;28;20219;-71
2023/08/05 10:32:51;;;;;;;3.97;3.78;;;27.30;99.90;;;;;;5013597;28;20228;-71
2023/08/05 10:35:42;;;;;;;5.47;5.18;;;27.50;99.90;;;;;;5011992;28;20172;-72
2023/08/05 10:38:18;;;;;;;4.28;4.07;;;27.50;99.90;;;;;;5013347;28;20271;-71
2023/08/05 10:41:00;;;;;;;4.82;3.60;;;27.60;99.90;;;;;;5013676;28;20174;-72
2023/08/05 10:43:30;;;;;;;5.53;5.22;;;27.80;99.90;;;;;;5011820;28;20180;-74
2023/08/05 10:46:06;;;;;;;3.78;3.58;;;28.10;99.90;;;;;;5013301;28;20200;-71
2023/08/05 10:48:43;;;;;;;3.38;3.17;;;28.10;99.90;;;;;;5012237;28;20270;-71
2023/08/05 10:51:12;;;;;;;2.83;2.72;;;28.00;99.90;;;;;;5013466;28;20219;-72
2023/08/05 10:53:38;;;;;;;3.88;3.67;;;27.90;99.90;;;;;;5013025;28;20207;-72
2023/08/05 10:56:10;;;;;;;4.90;4.68;;;28.00;99.90;;;;;;5013537;28;20719;-72
2023/08/05 10:58:37;;;;;;;8.00;7.60;;;27.70;99.90;;;;;;5013495;28;20627;-72
2023/08/05 11:01:04;;;;;;;6.43;6.13;;;27.20;99.90;;;;;;5012077;28;20653;-71
2023/08/05 11:03:44;;;;;;;8.98;8.55;;;27.00;99.90;;;;;;5012438;28;20187;-71
2023/08/05 11:06:11;;;;;;;3.50;3.30;;;26.50;99.90;;;;;;5013184;28;20711;-72
2023/08/05 11:08:39;;;;;;;3.22;2.67;;;26.30;99.90;;;;;;5011324;28;20182;-72
2023/08/05 11:11:10;;;;;;;3.30;3.10;;;26.10;99.90;;;;;;5013062;28;20247;-71
2023/08/05 11:13:37;;;;;;;3.25;3.00;;;25.80;99.90;;;;;;5012238;28;20196;-71
2023/08/05 11:16:06;;;;;;;3.38;3.17;;;25.50;99.90;;;;;;5012810;28;20251;-71
2023/08/05 11:18:33;;;;;;;4.15;3.95;;;25.10;99.90;;;;;;5013056;28;20271;-71
2023/08/05 11:21:01;;;;;;;3.30;3.10;;;24.90;99.90;;;;;;5013126;28;20175;-71
2023/08/05 11:23:27;;;;;;;3.63;3.42;;;24.70;99.90;;;;;;5012435;28;20171;-70
2023/08/05 11:25:53;;;;;;;3.22;3.03;;;24.30;99.90;;;;;;5011581;28;20215;-71
2023/08/05 11:28:20;;;;;;;3.45;3.22;;;24.10;99.90;;;;;;5012633;28;20180;-71
2023/08/05 11:30:46;;;;;;;3.40;2.60;;;24.20;99.90;;;;;;5012775;28;20172;-72
2023/08/05 11:33:11;;;;;;;3.95;3.53;;;24.30;99.90;;;;;;5010671;28;20661;-70
2023/08/05 11:35:45;;;;;;;5.18;4.88;;;24.70;99.90;;;;;;5012228;28;20192;-70
2023/08/05 11:38:31;;;;;;;3.30;3.10;;;25.30;99.90;;;;;;5012648;28;20219;-71
2023/08/05 11:40:57;;;;;;;3.63;3.30;;;25.40;99.90;;;;;;5010068;28;20385;-71
2023/08/05 11:43:24;;;;;;;3.83;3.63;;;25.60;99.90;;;;;;5010972;28;20653;-72
2023/08/05 11:45:54;;;;;;;7.25;6.57;;;25.70;99.90;;;;;;5011295;28;20208;-73
2023/08/05 11:48:21;;;;;;;5.63;5.20;;;25.70;99.90;;;;;;5012510;28;20653;-69
2023/08/05 11:50:49;;;;;;;3.03;2.83;;;25.60;99.90;;;;;;5012415;28;20184;-71
2023/08/05 11:53:14;;;;;;;3.10;2.90;;;25.50;99.90;;;;;;5012138;28;20207;-70
2023/08/05 11:55:42;;;;;;;4.50;3.92;;;25.50;99.90;;;;;;5012254;28;20243;-71
2023/08/05 11:58:09;;;;;;;3.78;2.90;;;25.60;99.90;;;;;;5012208;28;20164;-72
2023/08/05 12:00:36;;;;;;;2.60;2.40;;;25.90;99.90;;;;;;5012407;28;20255;-71
2023/08/05 12:03:05;;;;;;;3.08;2.88;;;26.40;99.90;;;;;;5012040;28;20171;-70
2023/08/05 12:05:31;;;;;;;3.03;2.70;;;26.80;99.90;;;;;;5012158;28;20168;-71
2023/08/05 12:07:56;;;;;;;2.63;2.53;;;27.00;99.90;;;;;;5012214;28;20164;-71
2023/08/05 12:10:22;;;;;;;7.80;7.47;;;27.50;99.90;;;;;;5011990;28;20199;-71
2023/08/05 12:12:49;;;;;;;7.00;6.63;;;27.60;99.90;;;;;;5011833;28;20200;-72
2023/08/05 12:15:26;;;;;;;5.63;5.40;;;27.80;99.90;;;;;;5009652;28;20220;-71
2023/08/05 12:17:55;;;;;;;6.35;5.93;;;27.80;99.90;;;;;;5012078;28;20251;-73
2023/08/05 12:20:28;;;;;;;3.22;3.03;;;27.90;99.90;;;;;;5011898;28;20168;-71
2023/08/05 12:22:54;;;;;;;3.85;3.63;;;27.80;99.90;;;;;;5011316;28;20226;-71
2023/08/05 12:25:21;;;;;;;4.13;3.92;;;27.60;99.90;;;;;;5010362;28;20565;-70
2023/08/05 12:27:47;;;;;;;7.32;6.93;;;27.10;99.90;;;;;;5011853;28;20243;-69
2023/08/05 12:30:13;;;;;;;3.75;2.90;;;26.70;99.90;;;;;;5011741;28;20180;-70
2023/08/05 12:32:39;;;;;;;2.80;2.60;;;26.30;99.90;;;;;;5010085;28;20250;-69
2023/08/05 12:35:09;;;;;;;3.08;2.70;;;25.80;99.90;;;;;;5011622;28;20255;-68
2023/08/05 12:37:36;;;;;;;7.03;6.53;;;25.20;99.90;;;;;;5010068;28;20591;-68
2023/08/05 12:40:06;;;;;;;3.78;3.58;;;24.50;99.90;;;;;;5011778;28;20187;-69
2023/08/05 12:42:33;;;;;;;3.38;3.17;;;23.80;99.90;;;;;;5010043;28;20187;-70
2023/08/05 12:45:03;;;;;;;4.03;3.72;;;23.20;99.90;;;;;;5011872;28;20535;-70
2023/08/05 12:47:29;;;;;;;4.70;4.30;;;22.80;99.90;;;;;;5008149;28;20245;-69